Time;durP1;ratioP1;P1;durP2;ratioP2;P2;SDS_P1;SDS_P2;PMS_P1;PMS_P2;Temp;Humidity;BMP_temperature;BMP_pressure;BME280_temperature;BME280_humidity;BME280_pressure;Samples;Min_cycle;Max_cycle;Signal;HPM_P1;HPM_P2
2023/01/04 00:00:15;;;;;;;;;3.00;3.00;;;;;11.14;100.00;101706.75;5063143;28;45539;-83
2023/01/04 00:02:46;;;;;;;;;2.33;2.33;;;;;11.19;100.00;101705.13;5062280;28;47132;-82
2023/01/04 00:05:12;;;;;;;;;2.00;2.00;;;;;11.23;100.00;101706.09;5045608;28;45414;-83
2023/01/04 00:07:40;;;;;;;;;1.00;1.00;;;;;11.51;100.00;101751.25;5053384;28;45127;-83
2023/01/04 00:10:06;;;;;;;;;5.33;3.33;;;;;11.48;100.00;101768.91;5052313;28;44911;-83
2023/01/04 00:12:37;;;;;;;;;2.00;2.00;;;;;11.48;100.00;101766.25;5052338;28;45820;-83
2023/01/04 00:15:09;;;;;;;;;3.00;3.00;;;;;11.46;100.00;101762.66;5051411;28;45295;-82
2023/01/04 00:17:47;;;;;;;;;2.00;2.00;;;;;11.32;100.00;101728.53;5051296;28;45259;-83
2023/01/04 00:20:13;;;;;;;;;3.33;3.00;;;;;11.46;100.00;101755.56;5067553;28;45417;-83
2023/01/04 00:22:39;;;;;;;;;4.00;2.00;;;;;11.48;100.00;101767.16;5047338;28;46570;-83
2023/01/04 00:25:09;;;;;;;;;2.00;2.00;;;;;11.36;100.00;101721.53;5046700;28;44843;-82
2023/01/04 00:27:35;;;;;;;;;3.00;3.00;;;;;11.34;100.00;101723.25;5049016;28;45395;-82
2023/01/04 00:30:01;;;;;;;;;3.00;3.00;;;;;11.58;100.00;101760.31;5047871;28;45339;-83
2023/01/04 00:32:27;;;;;;;;;5.25;3.50;;;;;11.54;100.00;101755.75;5064881;28;47305;-83
2023/01/04 00:35:24;;;;;;;;;1.00;1.00;;;;;11.56;100.00;101740.72;5064048;28;45819;-83
2023/01/04 00:38:01;;;;;;;;;2.75;2.75;;;;;11.57;100.00;101750.50;5068546;28;45564;-84
2023/01/04 00:40:32;;;;;;;;;2.50;1.25;;;;;11.34;100.00;101715.28;5050096;28;45345;-83
2023/01/04 00:43:04;;;;;;;;;2.00;1.75;;;;;11.56;100.00;101743.38;5033994;28;47353;-83
2023/01/04 00:45:45;;;;;;;;;6.00;3.00;;;;;11.34;100.00;101707.28;5048388;28;45488;-82
2023/01/04 00:51:41;;;;;;;;;2.25;2.25;;;;;11.29;100.00;101695.59;5050128;28;44718;-83
2023/01/04 00:54:22;;;;;;;;;2.67;2.67;;;;;11.41;100.00;101720.81;5049969;28;45491;-83
2023/01/04 00:56:48;;;;;;;;;3.00;3.00;;;;;11.39;100.00;101703.88;5029156;28;45513;-83
2023/01/04 00:59:18;;;;;;;;;2.33;2.33;;;;;11.65;100.00;101743.59;5030324;28;45508;-83
2023/01/04 01:01:49;;;;;;;;;3.00;3.00;;;;;11.56;100.00;101730.06;5048435;28;45465;-82
2023/01/04 01:04:25;;;;;;;;;2.00;2.00;;;;;11.30;100.00;101684.09;5030993;28;46895;-82
2023/01/04 01:06:54;;;;;;;;;3.00;3.00;;;;;11.44;100.00;101693.34;5049683;28;45427;-83
2023/01/04 01:09:31;;;;;;;;;3.00;3.00;;;;;11.67;100.00;101735.66;5068800;28;45413;-82
2023/01/04 01:12:00;;;;;;;;;3.00;3.00;;;;;11.60;100.00;101714.19;5049791;28;45716;-83
2023/01/04 01:14:33;;;;;;;;;4.33;4.33;;;;;11.64;100.00;101723.16;5068831;28;45537;-82
2023/01/04 01:17:01;;;;;;;;;3.00;3.00;;;;;11.61;100.00;101721.34;5068111;28;45380;-83
2023/01/04 01:19:30;;;;;;;;;3.00;3.00;;;;;11.64;100.00;101715.16;5048506;28;45344;-82
2023/01/04 01:21:59;;;;;;;;;2.00;2.00;;;;;11.59;100.00;101712.41;5047442;28;45529;-83
2023/01/04 01:24:28;;;;;;;;;3.00;3.00;;;;;11.63;100.00;101723.13;5065714;28;47183;-83
2023/01/04 01:26:56;;;;;;;;;5.67;3.33;;;;;11.47;100.00;101697.84;5066912;28;45455;-82
2023/01/04 01:29:36;;;;;;;;;4.00;4.00;;;;;11.66;100.00;101717.88;5050691;28;45448;-82
2023/01/04 01:32:06;;;;;;;;;4.00;3.25;;;;;11.63;100.00;101734.66;5054777;28;45651;-82
2023/01/04 01:34:37;;;;;;;;;3.00;3.00;;;;;11.64;100.00;101725.81;5052923;28;45648;-83
2023/01/04 01:37:09;;;;;;;;;3.33;3.33;;;;;11.61;100.00;101715.06;5052789;28;45594;-83
2023/01/04 01:39:42;;;;;;;;;3.67;3.67;;;;;11.67;100.00;101725.00;5053741;28;45371;-84
2023/01/04 01:42:22;;;;;;;;;3.00;3.00;;;;;11.69;100.00;101724.16;5071229;28;45448;-82
2023/01/04 01:45:10;;;;;;;;;2.67;2.67;;;;;11.59;100.00;101715.06;5071039;28;45389;-83
2023/01/04 01:47:50;;;;;;;;;7.00;4.33;;;;;11.52;100.00;101698.88;5068484;28;45542;-82
2023/01/04 01:50:29;;;;;;;;;4.67;4.00;;;;;11.65;100.00;101700.97;5067886;28;45322;-83
2023/01/04 01:53:04;;;;;;;;;2.00;2.00;;;;;11.46;100.00;101685.41;5085950;28;45552;-83
2023/01/04 01:55:36;;;;;;;;;2.00;2.00;;;;;11.68;100.00;101705.50;5068025;28;46139;-82
2023/01/04 01:58:05;;;;;;;;;3.00;3.00;;;;;11.49;100.00;101669.47;5085271;28;44856;-82
2023/01/04 02:00:38;;;;;;;;;4.67;3.67;;;;;11.46;100.00;101651.66;5069405;28;45451;-83
2023/01/04 02:03:17;;;;;;;;;3.00;2.00;;;;;11.68;100.00;101701.06;5089468;28;45650;-83
2023/01/04 02:05:52;;;;;;;;;2.00;2.00;;;;;11.66;100.00;101694.78;5069990;28;46781;-82
2023/01/04 02:08:24;;;;;;;;;4.00;3.00;;;;;11.63;100.00;101702.69;5070139;28;45394;-84
2023/01/04 02:10:53;;;;;;;;;3.00;2.00;;;;;11.47;100.00;101680.09;5070630;28;45503;-82
2023/01/04 02:16:19;;;;;;;;;5.33;3.00;;;;;11.67;100.00;101722.34;5028692;28;45272;-83
2023/01/04 02:22:18;;;;;;;;;2.00;2.00;;;;;11.70;100.00;101710.00;5026283;28;45494;-83
2023/01/04 02:25:21;;;;;;;;;2.00;2.00;;;;;11.77;100.00;101722.59;5009741;28;45445;-83
2023/01/04 02:28:11;;;;;;;;;3.00;3.00;;;;;11.44;100.00;101677.38;5024310;28;46551;-83
2023/01/04 02:30:43;;;;;;;;;3.00;1.33;;;;;11.76;100.00;101720.81;5025191;28;45553;-83
2023/01/04 02:33:32;;;;;;;;;3.00;3.00;;;;;11.77;100.00;101738.56;5009696;28;45593;-83
2023/01/04 02:36:29;;;;;;;;;2.33;2.33;;;;;11.80;100.00;101729.78;5009747;28;45689;-82
2023/01/04 02:39:06;;;;;;;;;3.00;3.00;;;;;11.80;100.00;101733.34;5009901;28;46522;-82
2023/01/04 02:41:39;;;;;;;;;2.33;2.33;;;;;11.78;100.00;101716.41;5025814;28;45376;-82
2023/01/04 02:47:09;;;;;;;;;4.00;3.00;;;;;11.76;100.00;101714.56;5027125;28;44907;-82
2023/01/04 02:52:23;;;;;;;;;1.00;1.00;;;;;11.80;100.00;101730.69;5026022;28;45486;-83
2023/01/04 02:54:54;;;;;;;;;1.75;1.00;;;;;11.68;100.00;101697.50;5048854;28;45450;-82
2023/01/04 02:57:29;;;;;;;;;2.00;2.00;;;;;11.87;100.00;101714.84;5030100;28;45682;-83
2023/01/04 03:00:13;;;;;;;;;1.75;1.75;;;;;11.85;100.00;101719.22;5048326;28;46422;-83
2023/01/04 03:06:21;;;;;;;;;3.00;3.00;;;;;11.86;100.00;101723.72;5048048;28;45415;-82
2023/01/04 03:09:13;;;;;;;;;3.00;2.25;;;;;11.66;100.00;101686.78;5031302;28;45480;-83
2023/01/04 03:14:42;;;;;;;;;2.75;2.75;;;;;11.90;100.00;101725.63;5029235;28;45289;-83
2023/01/04 03:17:16;;;;;;;;;2.75;1.75;;;;;11.65;100.00;101687.66;5044262;28;45435;-83
2023/01/04 03:19:50;;;;;;;;;4.33;3.00;;;;;11.93;100.00;101720.34;5028286;28;45428;-83
2023/01/04 03:37:22;;;;;;;;;1.25;1.25;;;;;11.67;100.00;101648.63;5029305;28;45433;-82
2023/01/04 03:49:31;;;;;;;;;2.50;0.50;;;;;11.80;100.00;101636.50;5010291;28;45341;-82
2023/01/04 03:52:00;;;;;;;;;1.00;1.00;;;;;11.93;100.00;101670.59;5009343;28;44834;-82
2023/01/04 03:57:52;;;;;;;;;1.75;1.75;;;;;12.00;100.00;101666.31;5008908;28;45344;-82
2023/01/04 04:00:19;;;;;;;;;1.50;1.50;;;;;11.83;100.00;101623.22;5009843;28;45541;-83
2023/01/04 04:02:50;;;;;;;;;1.25;1.25;;;;;11.97;100.00;101645.81;5010703;28;45515;-83
2023/01/04 04:08:24;;;;;;;;;0.50;0.50;;;;;12.03;100.00;101642.38;5011762;28;45399;-83
2023/01/04 04:10:53;;;;;;;;;0.00;0.00;;;;;11.76;100.00;101598.22;5011158;28;44893;-82
2023/01/04 04:13:20;;;;;;;;;1.00;1.00;;;;;11.87;100.00;101627.75;5008942;28;44923;-82
2023/01/04 04:15:46;;;;;;;;;2.00;0.25;;;;;11.78;100.00;101599.16;5007590;28;45574;-84
2023/01/04 04:18:20;;;;;;;;;1.00;1.00;;;;;11.88;100.00;101623.34;4988992;28;47676;-82
2023/01/04 04:20:56;;;;;;;;;1.00;1.00;;;;;12.06;100.00;101649.53;5005262;28;45427;-82
2023/01/04 04:23:24;;;;;;;;;3.00;1.25;;;;;12.04;100.00;101646.88;5007205;28;45380;-83
2023/01/04 04:26:02;;;;;;;;;2.00;2.00;;;;;12.01;100.00;101649.44;5011239;28;44807;-83
2023/01/04 04:31:55;;;;;;;;;2.00;2.00;;;;;11.74;100.00;101613.25;5009794;28;45532;-84
2023/01/04 04:34:24;;;;;;;;;1.00;1.00;;;;;11.77;100.00;101621.31;4992774;28;45276;-84
2023/01/04 04:37:03;;;;;;;;;2.25;1.75;;;;;12.00;100.00;101643.22;5009989;28;45427;-83
2023/01/04 04:39:32;;;;;;;;;1.00;1.00;;;;;11.93;100.00;101629.72;5007989;28;45475;-83
2023/01/04 04:42:00;;;;;;;;;1.00;0.00;;;;;11.94;100.00;101648.41;5023128;28;44961;-83
2023/01/04 04:44:33;;;;;;;;;1.00;1.00;;;;;11.89;100.00;101626.06;5028277;28;44857;-83
2023/01/04 04:47:02;;;;;;;;;1.00;1.00;;;;;11.79;100.00;101614.25;5028183;28;45749;-82
2023/01/04 04:49:33;;;;;;;;;2.00;1.00;;;;;11.99;100.00;101637.84;5028431;28;46347;-81
2023/01/04 04:52:00;;;;;;;;;1.00;1.00;;;;;11.87;100.00;101608.22;5009298;28;45420;-82
2023/01/04 04:54:31;;;;;;;;;1.00;1.00;;;;;11.94;100.00;101631.53;5010032;28;45336;-82
2023/01/04 04:56:57;;;;;;;;;1.25;1.25;;;;;11.78;100.00;101601.81;5027642;28;45437;-82
2023/01/04 04:59:23;;;;;;;;;2.00;2.00;;;;;12.10;100.00;101652.34;5009079;28;45473;-82
2023/01/04 05:01:54;;;;;;;;;0.75;0.75;;;;;12.10;100.00;101651.41;5027384;28;45431;-82
2023/01/04 05:04:23;;;;;;;;;1.50;1.50;;;;;11.97;100.00;101626.25;5028372;28;45302;-82
2023/01/04 05:06:51;;;;;;;;;0.50;0.50;;;;;11.88;100.00;101602.03;5010346;28;45370;-83
2023/01/04 05:09:20;;;;;;;;;1.00;1.00;;;;;12.04;100.00;101620.19;5008774;28;47190;-83
2023/01/04 05:14:39;;;;;;;;;1.33;1.33;;;;;11.90;100.00;101585.25;5032850;28;44809;-83
2023/01/04 05:17:14;;;;;;;;;1.25;1.25;;;;;11.80;100.00;101578.75;5032008;28;45442;-82
2023/01/04 05:19:42;;;;;;;;;1.00;1.00;;;;;12.15;100.00;101618.66;5026355;28;47158;-82
2023/01/04 05:22:11;;;;;;;;;2.00;1.00;;;;;12.06;100.00;101601.53;5027153;28;45490;-82
2023/01/04 05:24:37;;;;;;;;;0.75;0.75;;;;;11.96;100.00;101581.81;5012460;28;44789;-81
2023/01/04 05:27:09;;;;;;;;;1.00;1.00;;;;;11.96;100.00;101581.81;5011490;28;44869;-82
2023/01/04 05:32:41;;;;;;;;;1.00;1.00;;;;;11.92;100.00;101577.28;5032529;28;45437;-82
2023/01/04 05:35:07;;;;;;;;;1.00;1.00;;;;;12.16;100.00;101617.81;5035856;28;44754;-82
2023/01/04 05:37:36;;;;;;;;;2.00;2.00;;;;;11.96;100.00;101588.03;5032781;28;45268;-83
2023/01/04 05:40:05;;;;;;;;;1.50;1.00;;;;;12.01;100.00;101598.78;5014432;28;47201;-82
2023/01/04 05:42:35;;;;;;;;;0.50;0.50;;;;;12.20;100.00;101648.13;5050125;28;45440;-83
2023/01/04 05:45:03;;;;;;;;;0.25;0.25;;;;;12.15;100.00;101639.09;5052710;28;45573;-83
2023/01/04 05:47:29;;;;;;;;;1.00;1.00;;;;;11.98;100.00;101606.75;5069625;28;45351;-84
2023/01/04 05:49:57;;;;;;;;;0.25;0.25;;;;;12.16;100.00;101659.56;5048313;28;45551;-82
2023/01/04 05:52:26;;;;;;;;;1.00;1.00;;;;;11.87;100.00;101610.88;5045085;28;45354;-83
2023/01/04 05:54:54;;;;;;;;;1.00;1.00;;;;;11.87;100.00;101608.22;5062779;28;45710;-82
2023/01/04 05:57:20;;;;;;;;;1.00;1.00;;;;;11.82;100.00;101595.69;5050091;28;45387;-82
2023/01/04 05:59:46;;;;;;;;;2.25;2.25;;;;;11.70;100.00;101592.75;5050425;28;45736;-82
2023/01/04 06:02:26;;;;;;;;;0.50;0.50;;;;;11.85;100.00;101628.59;5048984;28;45453;-83
2023/01/04 06:04:55;;;;;;;;;1.00;1.00;;;;;11.86;100.00;101625.09;5050962;28;44884;-82
2023/01/04 06:07:21;;;;;;;;;0.25;0.25;;;;;11.92;100.00;101643.91;5054857;28;45212;-84
2023/01/04 06:09:47;;;;;;;;;0.25;0.25;;;;;11.96;100.00;101646.69;5055352;28;45200;-81
2023/01/04 06:12:13;;;;;;;;;0.00;0.00;;;;;11.84;100.00;101630.38;5056112;28;45280;-83
2023/01/04 06:14:45;;;;;;;;;0.50;0.50;;;;;12.09;100.00;101650.50;5053481;28;44835;-81
2023/01/04 06:17:11;;;;;;;;;1.00;1.00;;;;;11.97;100.00;101628.91;5055284;28;44719;-81
2023/01/04 06:19:37;;;;;;;;;1.00;1.00;;;;;11.86;100.00;101603.75;5069765;28;46059;-82
2023/01/04 06:22:03;;;;;;;;;0.00;0.00;;;;;12.10;100.00;101635.41;5062627;28;45393;-82
2023/01/04 06:24:28;;;;;;;;;1.00;0.50;;;;;11.87;100.00;101578.91;5063552;28;45477;-82
2023/01/04 06:26:54;;;;;;;;;0.00;0.00;;;;;11.89;100.00;101598.53;5046601;28;45530;-83
2023/01/04 06:29:20;;;;;;;;;1.00;1.00;;;;;11.97;100.00;101613.81;5048200;28;45441;-83
2023/01/04 06:31:46;;;;;;;;;1.00;1.00;;;;;11.89;100.00;101609.19;5047766;28;44844;-83
2023/01/04 06:34:13;;;;;;;;;4.00;2.00;;;;;11.77;100.00;101594.66;5067826;28;45346;-83
2023/01/04 06:36:40;;;;;;;;;0.75;0.75;;;;;12.05;100.00;101631.75;5052504;28;45445;-83
2023/01/04 06:39:07;;;;;;;;;1.00;1.00;;;;;12.01;100.00;101621.00;5050005;28;47014;-83
2023/01/04 06:41:33;;;;;;;;;1.00;1.00;;;;;12.06;100.00;101638.88;5051213;28;45739;-83
2023/01/04 06:43:59;;;;;;;;;0.00;0.00;;;;;11.95;100.00;101625.31;5035359;28;45392;-83
2023/01/04 06:46:27;;;;;;;;;1.50;0.00;;;;;12.02;100.00;101651.25;5037239;28;45504;-83
2023/01/04 06:48:53;;;;;;;;;0.00;0.00;;;;;12.01;100.00;101646.78;5036741;28;46638;-83
2023/01/04 06:51:20;;;;;;;;;1.00;1.00;;;;;11.95;100.00;101665.31;5039020;28;44840;-83
2023/01/04 06:53:46;;;;;;;;;1.00;1.00;;;;;11.89;100.00;101651.84;5056483;28;45437;-82
2023/01/04 07:03:11;;;;;;;;;0.00;0.00;;;;;11.91;100.00;101642.09;5053498;28;45288;-83
2023/01/04 07:05:36;;;;;;;;;2.50;2.50;;;;;11.94;100.00;101634.19;5059223;28;44800;-82
2023/01/04 07:08:05;;;;;;;;;1.00;0.50;;;;;11.94;100.00;101637.75;5021402;28;45148;-85
2023/01/04 07:10:31;;;;;;;;;1.25;1.25;;;;;12.01;100.00;101646.78;5015447;28;47728;-85
2023/01/04 07:12:56;;;;;;;;;1.00;1.00;;;;;11.94;100.00;101631.53;5016900;28;45327;-84
2023/01/04 07:15:22;;;;;;;;;1.50;1.00;;;;;12.06;100.00;101650.47;5035966;28;45525;-84
2023/01/04 07:17:48;;;;;;;;;1.00;1.00;;;;;12.03;100.00;101620.16;5032945;28;44808;-83
2023/01/04 07:20:14;;;;;;;;;0.00;0.00;;;;;12.15;100.00;101650.66;5033450;28;45441;-83
2023/01/04 07:22:40;;;;;;;;;1.00;1.00;;;;;12.13;100.00;101636.38;5032809;28;44773;-83
2023/01/04 07:25:06;;;;;;;;;1.50;1.00;;;;;12.21;100.00;101645.44;5030778;28;45798;-83
2023/01/04 07:27:34;;;;;;;;;2.25;2.00;;;;;12.30;100.00;101646.50;5029799;28;45288;-83
2023/01/04 07:30:00;;;;;;;;;1.00;1.00;;;;;12.28;100.00;101650.91;5028905;28;45436;-82
2023/01/04 07:32:25;;;;;;;;;0.50;0.50;;;;;12.28;100.00;101641.16;5030101;28;45466;-82
2023/01/04 07:34:51;;;;;;;;;0.00;0.00;;;;;12.15;100.00;101617.75;5012556;28;45538;-82
2023/01/04 07:37:29;;;;;;;;;0.75;0.75;;;;;12.27;100.00;101643.78;5032036;28;45566;-81
2023/01/04 07:40:25;;;;;;;;;1.00;1.00;;;;;12.22;100.00;101643.72;5021006;28;46286;-81
2023/01/04 07:43:10;;;;;;;;;0.25;0.25;;;;;12.16;100.00;101625.81;5052759;28;45292;-82
2023/01/04 07:45:38;;;;;;;;;1.50;0.75;;;;;12.41;100.00;101675.22;5038161;28;44815;-82
2023/01/04 07:48:04;;;;;;;;;0.75;0.75;;;;;12.29;100.00;101631.41;5048785;28;45507;-81
2023/01/04 07:50:30;;;;;;;;;1.00;1.00;;;;;12.45;100.00;101657.53;5033772;28;46390;-82
2023/01/04 07:53:00;;;;;;;;;0.25;0.25;;;;;12.48;100.00;101654.94;5034468;28;44756;-82
2023/01/04 07:55:26;;;;;;;;;2.00;0.00;;;;;12.45;100.00;101649.53;5033799;28;44815;-83
2023/01/04 07:58:10;;;;;;;;;2.75;0.00;;;;;12.48;100.00;101654.00;5251163;22;46857;-82
2023/01/04 08:00:36;;;;;;;;;0.00;0.00;;;;;12.44;100.00;101650.38;5071621;28;46813;-82
2023/01/04 08:03:11;;;;;;;;;3.00;0.75;;;;;12.51;100.00;101646.97;5100334;28;45475;-83
2023/01/04 08:05:38;;;;;;;;;0.00;0.00;;;;;12.49;100.00;101663.84;5078134;28;44870;-82
2023/01/04 08:08:04;;;;;;;;;1.50;1.00;;;;;12.52;100.00;101662.13;5078187;28;44808;-81
2023/01/04 08:10:37;;;;;;;;;1.25;1.25;;;;;12.27;100.00;101622.47;5072927;28;46767;-83
2023/01/04 08:13:02;;;;;;;;;1.50;1.50;;;;;12.38;100.00;101628.91;5057715;28;44750;-80
2023/01/04 08:18:55;;;;;;;;;2.75;2.75;;;;;12.30;100.00;101607.44;5074332;28;45276;-81
2023/01/04 08:21:22;;;;;;;;;3.00;1.00;;;;;12.49;100.00;101643.38;5052149;28;46687;-84
2023/01/04 08:23:47;;;;;;;;;1.00;1.00;;;;;12.37;100.00;101609.34;5053005;28;45435;-82
2023/01/04 08:26:20;;;;;;;;;2.50;0.75;;;;;12.55;100.00;101629.28;5072503;28;45471;-82
2023/01/04 08:29:03;;;;;;;;;1.00;1.00;;;;;12.60;100.00;101622.25;5076782;28;45397;-83
2023/01/04 08:31:31;;;;;;;;;0.75;0.75;;;;;12.63;100.00;101632.09;5074953;28;45412;-82
2023/01/04 08:34:17;;;;;;;;;2.75;2.00;;;;;12.71;100.00;101642.03;5094891;28;45369;-83
2023/01/04 08:37:05;;;;;;;;;3.75;3.75;;;;;12.67;100.00;101636.63;5089696;28;44804;-82
2023/01/04 08:40:15;;;;;;;;;;;;;;;;;;;;;
2023/01/04 08:43:26;;;;;;;;;4.00;1.50;;;;;12.65;100.00;101630.34;5094473;28;74706;-82
2023/01/04 08:46:07;;;;;;;;;0.00;0.00;;;;;12.69;100.00;101632.22;5078143;28;45641;-80
2023/01/04 08:48:49;;;;;;;;;1.50;1.00;;;;;12.91;100.00;101646.88;5059956;28;44813;-80
2023/01/04 08:51:31;;;;;;;;;1.00;1.00;;;;;12.95;100.00;101662.97;5085134;28;44920;-81
2023/01/04 08:54:07;;;;;;;;;0.00;0.00;;;;;12.94;100.00;101670.94;5100989;28;45422;-83
2023/01/04 08:56:34;;;;;;;;;3.33;3.33;;;;;13.01;100.00;101665.75;5075002;28;45393;-81
2023/01/04 08:59:08;;;;;;;;;0.00;0.00;;;;;12.77;100.00;101626.16;5082307;27;44934;-82
2023/01/04 09:01:34;;;;;;;;;1.00;1.00;;;;;13.01;100.00;101663.09;5053936;28;44835;-82
2023/01/04 09:04:00;;;;;;;;;3.00;1.00;;;;;13.02;100.00;101659.53;5051361;28;45457;-82
2023/01/04 09:06:26;;;;;;;;;2.25;1.75;;;;;12.86;100.00;101621.84;5034205;28;45431;-81
2023/01/04 09:08:56;;;;;;;;;1.00;1.00;;;;;12.95;100.00;101633.59;5048038;28;45529;-80
2023/01/04 09:11:24;;;;;;;;;0.00;0.00;;;;;12.89;100.00;101625.50;5065708;28;45491;-81
2023/01/04 09:13:56;;;;;;;;;0.75;0.75;;;;;13.12;100.00;101657.94;5068736;28;45437;-82
2023/01/04 09:16:28;;;;;;;;;0.25;0.25;;;;;13.10;100.00;101651.69;5033720;28;45426;-83
2023/01/04 09:18:54;;;;;;;;;0.50;0.50;;;;;13.17;100.00;101666.06;5055960;28;45320;-83
2023/01/04 09:21:23;;;;;;;;;0.00;0.00;;;;;13.15;100.00;101647.31;5058154;28;44904;-84
2023/01/04 09:23:49;;;;;;;;;0.25;0.25;;;;;13.17;100.00;101636.69;5065317;28;45562;-81
2023/01/04 09:26:21;;;;;;;;;1.33;1.33;;;;;13.20;100.00;101623.38;5067042;28;45484;-82
2023/01/04 09:29:05;;;;;;;;;;;;;;;;;;;;;
2023/01/04 09:31:31;;;;;;;;;1.00;1.00;;;;;13.32;100.00;101636.06;5079491;28;65927;-84
2023/01/04 09:34:00;;;;;;;;;2.00;2.00;;;;;13.42;100.00;101635.34;5050585;28;46846;-80
2023/01/04 09:36:33;;;;;;;;;0.25;0.25;;;;;13.28;100.00;101607.47;5053366;28;45431;-82
2023/01/04 09:39:03;;;;;;;;;1.00;1.00;;;;;13.44;100.00;101627.38;5072216;28;44920;-82
2023/01/04 09:42:17;;;;;;;;;1.00;1.00;;;;;13.46;100.00;101644.31;5056995;28;45537;-83
2023/01/04 09:49:20;;;;;;;;;;;;;;;;;;;;;
2023/01/04 09:52:02;;;;;;;;;0.75;0.75;;;;;13.53;100.00;101635.50;5047821;28;68080;-85
2023/01/04 09:54:43;;;;;;;;;1.00;1.00;;;;;13.37;100.00;101605.91;5032344;28;45360;-83
2023/01/04 09:57:33;;;;;;;;;2.00;0.00;;;;;13.61;100.00;101644.56;5031530;28;46774;-84
2023/01/04 10:00:23;;;;;;;;;0.00;0.00;;;;;13.64;100.00;101646.41;5027663;28;45928;-84
2023/01/04 10:03:04;;;;;;;;;1.00;1.00;;;;;13.59;100.00;101630.28;5033865;28;45831;-83
2023/01/04 10:05:42;;;;;;;;;2.00;2.00;;;;;13.56;100.00;101624.91;5014971;28;44845;-83
2023/01/04 10:08:16;;;;;;;;;1.25;1.25;;;;;13.35;100.00;101580.94;5013473;28;46954;-82
2023/01/04 10:11:25;;;;;;;;;2.50;2.50;;;;;13.71;100.00;101642.94;5033066;28;44911;-83
2023/01/04 10:14:11;;;;;;;;;2.50;2.50;;;;;13.73;100.00;101651.88;5011711;28;45405;-82
2023/01/04 10:17:10;;;;;;;;;1.00;1.00;;;;;13.57;100.00;101627.59;5023003;28;45218;-80
2023/01/04 10:30:03;;;;;;;;;1.00;1.00;;;;;13.78;100.00;101653.75;5020925;28;44770;-81
2023/01/04 10:32:49;;;;;;;;;2.00;2.00;;;;;13.76;100.00;101655.50;5027148;28;46843;-81
2023/01/04 10:35:22;;;;;;;;;2.75;2.00;;;;;13.71;100.00;101630.47;5028452;28;45531;-81
2023/01/04 10:38:08;;;;;;;;;0.75;0.75;;;;;13.71;100.00;101635.81;5029327;28;44806;-83
2023/01/04 10:40:46;;;;;;;;;2.00;1.00;;;;;13.76;100.00;101650.16;5011808;28;45538;-81
2023/01/04 10:43:37;;;;;;;;;1.00;1.00;;;;;13.77;100.00;101635.91;5018067;28;45513;-80
2023/01/04 10:46:43;;;;;;;;;1.00;1.00;;;;;13.79;100.00;101636.84;5018990;28;45571;-80
2023/01/04 10:53:47;;;;;;;;;;;;;;;;;;;;;
2023/01/04 11:00:00;;;;;;;;;1.00;1.00;;;;;13.67;100.00;101590.31;4914237;28;45628;-81
2023/01/04 11:02:52;;;;;;;;;0.00;0.00;;;;;13.86;100.00;101620.91;4922949;28;45617;-81
2023/01/04 11:05:33;;;;;;;;;2.25;2.25;;;;;13.92;100.00;101629.91;4928807;28;45520;-81
2023/01/04 11:08:10;;;;;;;;;2.25;2.00;;;;;13.71;100.00;101587.69;4929072;28;47736;-80
2023/01/04 11:10:48;;;;;;;;;3.00;3.00;;;;;13.93;100.00;101637.03;4930987;28;45317;-82
2023/01/04 11:13:14;;;;;;;;;2.00;2.00;;;;;13.82;100.00;101611.03;4928732;28;45462;-82
2023/01/04 11:15:47;;;;;;;;;1.50;1.25;;;;;13.93;100.00;101620.09;4929905;28;45081;-82
2023/01/04 11:18:16;;;;;;;;;1.50;1.50;;;;;13.99;100.00;101633.56;4931375;28;48259;-82
2023/01/04 11:20:45;;;;;;;;;1.00;1.00;;;;;13.83;100.00;101602.13;4932686;28;45404;-82
2023/01/04 11:23:17;;;;;;;;;1.50;1.50;;;;;13.77;100.00;101582.44;4962185;28;45477;-81
2023/01/04 11:25:51;;;;;;;;;3.00;2.00;;;;;14.02;100.00;101625.59;5010333;28;45380;-80
2023/01/04 11:28:43;;;;;;;;;0.75;0.75;;;;;13.82;100.00;101578.94;5012378;28;45526;-81
2023/01/04 11:31:16;;;;;;;;;2.50;1.00;;;;;14.05;100.00;101616.69;5015745;28;44850;-81
2023/01/04 11:34:03;;;;;;;;;2.00;2.00;;;;;13.98;100.00;101597.91;5054817;28;45509;-80
2023/01/04 11:36:37;;;;;;;;;4.00;4.00;;;;;14.07;100.00;101615.84;5064818;28;45591;-81
2023/01/04 11:39:08;;;;;;;;;2.00;2.00;;;;;14.08;100.00;101606.03;5057036;28;46095;-81
2023/01/04 11:41:52;;;;;;;;;3.00;3.00;;;;;13.97;100.00;101572.00;5068185;28;45876;-80
2023/01/04 11:48:06;;;;;;;;;2.25;2.25;;;;;14.09;100.00;101584.66;5071300;28;45477;-81
2023/01/04 11:50:50;;;;;;;;;2.00;0.00;;;;;14.15;100.00;101600.78;5054976;28;47108;-80
2023/01/04 11:53:35;;;;;;;;;2.50;2.50;;;;;14.12;100.00;101599.88;5071928;28;44893;-82
2023/01/04 11:56:25;;;;;;;;;4.50;4.00;;;;;13.92;100.00;101548.78;5075815;28;45470;-82
2023/01/04 11:59:15;;;;;;;;;2.25;2.00;;;;;14.17;100.00;101582.97;5068356;28;44891;-81
2023/01/04 12:02:20;;;;;;;;;4.00;2.75;;;;;14.23;100.00;101581.28;5076807;28;47358;-83
2023/01/04 12:09:10;;;;;;;;;;;;;;;;;;;;;
2023/01/04 12:12:18;;;;;;;;;;;;;;;;;;;;;
2023/01/04 12:15:42;;;;;;;;;1.00;1.00;;;;;14.18;100.00;101563.38;4997195;28;74474;-83
2023/01/04 12:19:01;;;;;;;;;;;;;;;;;;;;;
2023/01/04 12:21:48;;;;;;;;;1.00;1.00;;;;;14.15;100.00;101567.78;4995914;28;68074;-82
2023/01/04 12:24:55;;;;;;;;;1.75;1.75;;;;;14.20;100.00;101561.63;4981277;28;44836;-85
2023/01/04 12:28:08;;;;;;;;;2.00;2.00;;;;;14.23;100.00;101566.09;4979434;28;45142;-83
2023/01/04 12:30:37;;;;;;;;;0.25;0.25;;;;;14.28;100.00;101569.75;4949960;28;45737;-82
2023/01/04 12:33:44;;;;;;;;;;;;;;;;;;;;;
2023/01/04 12:36:43;;;;;;;;;2.75;2.75;;;;;14.33;100.00;101564.44;4916741;28;65102;-82
2023/01/04 12:39:12;;;;;;;;;2.25;1.25;;;;;14.29;100.00;101558.16;4928288;28;45571;-83
2023/01/04 12:42:24;;;;;;;;;;;;;;;;;;;;;
2023/01/04 12:45:00;;;;;;;;;0.50;0.50;;;;;14.06;100.00;101509.75;4978013;28;67961;-81
2023/01/04 12:50:28;;;;;;;;;1.00;1.00;;;;;13.98;100.00;101514.09;5033067;28;45505;-81
2023/01/04 12:53:03;;;;;;;;;2.50;1.75;;;;;14.06;100.00;101531.13;4994640;28;45527;-83
2023/01/04 12:55:40;;;;;;;;;1.00;1.00;;;;;14.04;100.00;101548.03;5007592;28;45507;-82
2023/01/04 12:58:27;;;;;;;;;1.75;1.75;;;;;14.07;100.00;101532.91;5006011;28;45620;-81
2023/01/04 13:00:52;;;;;;;;;2.00;2.00;;;;;14.12;100.00;101536.56;4990302;28;46994;-81
2023/01/04 13:03:18;;;;;;;;;3.75;3.75;;;;;14.20;100.00;101524.16;4973010;28;45379;-81
2023/01/04 13:05:54;;;;;;;;;1.00;1.00;;;;;14.31;100.00;101529.63;4980216;28;45393;-82
2023/01/04 13:08:32;;;;;;;;;1.25;1.25;;;;;14.13;100.00;101494.66;5072620;28;45418;-82
2023/01/04 13:11:02;;;;;;;;;1.75;1.75;;;;;14.34;100.00;101526.09;5070434;28;48352;-81
2023/01/04 13:13:47;;;;;;;;;1.25;1.00;;;;;14.46;100.00;101522.66;5071266;28;45385;-80
2023/01/04 13:16:25;;;;;;;;;2.50;2.00;;;;;14.50;100.00;101522.72;5052646;28;45447;-80
2023/01/04 13:19:07;;;;;;;;;1.00;1.00;;;;;14.49;100.00;101536.97;5086897;28;45011;-80
2023/01/04 13:21:42;;;;;;;;;1.00;1.00;;;;;14.49;100.00;101530.72;5088660;28;45995;-80
2023/01/04 13:24:23;;;;;;;;;1.00;1.00;;;;;14.54;100.00;101535.25;5052164;28;44866;-80
2023/01/04 13:26:52;;;;;;;;;2.50;1.25;;;;;14.46;100.00;101496.81;5032377;28;45560;-79
2023/01/04 13:29:29;;;;;;;;;1.00;1.00;;;;;14.60;100.00;101513.00;5070167;27;45147;-81
2023/01/04 13:31:58;;;;;;;;;1.00;1.00;;;;;14.68;100.00;101508.63;5089191;28;45420;-80
2023/01/04 13:34:39;;;;;;;;;1.00;1.00;;;;;14.69;100.00;101517.59;5073491;28;45410;-80
2023/01/04 13:37:24;;;;;;;;;1.00;1.00;;;;;14.53;100.00;101489.72;5072903;28;45320;-81
2023/01/04 13:40:10;;;;;;;;;1.25;1.25;;;;;14.74;100.00;101521.19;5054555;28;45550;-83
2023/01/04 13:42:49;;;;;;;;;1.00;1.00;;;;;14.55;100.00;101488.84;5051896;28;45619;-80
2023/01/04 13:45:52;;;;;;;;;1.00;1.00;;;;;14.74;100.00;101515.84;5073823;28;44872;-82
2023/01/04 13:48:31;;;;;;;;;1.25;1.25;;;;;14.64;100.00;101490.75;5066444;28;44845;-81
2023/01/04 13:51:01;;;;;;;;;2.00;1.00;;;;;14.92;100.00;101509.75;5057233;28;45330;-82